sensor_id;sensor_type;location;lat;lon;timestamp;pressure;altitude;pressure_sealevel;temperature;humidity
60817;BME280;51921;51.518;-3.188;2023-08-07T00:02:12;101770.77;;;16.52;72.15
60817;BME280;51921;51.518;-3.188;2023-08-07T00:04:38;101771.31;;;16.03;73.75
60817;BME280;51921;51.518;-3.188;2023-08-07T00:07:04;101763.80;;;14.43;79.81
60817;BME280;51921;51.518;-3.188;2023-08-07T00:09:29;101762.57;;;14.90;77.30
60817;BME280;51921;51.518;-3.188;2023-08-07T00:11:54;101759.30;;;14.02;81.35
60817;BME280;51921;51.518;-3.188;2023-08-07T00:14:19;101759.06;;;14.87;82.39
60817;BME280;51921;51.518;-3.188;2023-08-07T00:16:45;101752.94;;;14.82;84.14
60817;BME280;51921;51.518;-3.188;2023-08-07T00:19:11;101751.24;;;14.63;84.63
60817;BME280;51921;51.518;-3.188;2023-08-07T00:21:36;101755.85;;;15.13;80.25
60817;BME280;51921;51.518;-3.188;2023-08-07T00:24:01;101748.81;;;14.43;82.78
60817;BME280;51921;51.518;-3.188;2023-08-07T00:26:26;101747.79;;;15.04;82.19
60817;BME280;51921;51.518;-3.188;2023-08-07T00:28:52;101750.82;;;13.28;88.83
60817;BME280;51921;51.518;-3.188;2023-08-07T00:31:17;101751.41;;;13.53;88.88
60817;BME280;51921;51.518;-3.188;2023-08-07T00:33:43;101750.80;;;13.13;91.69
60817;BME280;51921;51.518;-3.188;2023-08-07T00:36:08;101749.62;;;13.32;95.83
60817;BME280;51921;51.518;-3.188;2023-08-07T00:38:34;101745.73;;;14.55;90.51
60817;BME280;51921;51.518;-3.188;2023-08-07T00:40:59;101744.40;;;15.15;84.55
60817;BME280;51921;51.518;-3.188;2023-08-07T00:43:24;101747.16;;;14.25;83.97
60817;BME280;51921;51.518;-3.188;2023-08-07T00:45:50;101743.85;;;13.34;90.42
60817;BME280;51921;51.518;-3.188;2023-08-07T00:48:16;101742.74;;;13.59;88.97
60817;BME280;51921;51.518;-3.188;2023-08-07T00:50:42;101740.61;;;14.29;85.67
60817;BME280;51921;51.518;-3.188;2023-08-07T00:53:07;101744.69;;;13.50;88.95
60817;BME280;51921;51.518;-3.188;2023-08-07T00:55:32;101743.96;;;12.96;88.65
60817;BME280;51921;51.518;-3.188;2023-08-07T00:57:58;101747.37;;;14.62;85.00
60817;BME280;51921;51.518;-3.188;2023-08-07T01:00:22;101747.63;;;13.66;86.48
60817;BME280;51921;51.518;-3.188;2023-08-07T01:02:48;101748.03;;;14.01;85.80
60817;BME280;51921;51.518;-3.188;2023-08-07T01:05:13;101750.10;;;13.98;84.28
60817;BME280;51921;51.518;-3.188;2023-08-07T01:07:38;101749.09;;;14.25;82.19
60817;BME280;51921;51.518;-3.188;2023-08-07T01:10:04;101744.58;;;14.08;85.01
60817;BME280;51921;51.518;-3.188;2023-08-07T01:12:30;101747.81;;;13.34;86.80
60817;BME280;51921;51.518;-3.188;2023-08-07T01:15:01;101748.99;;;14.83;82.24
60817;BME280;51921;51.518;-3.188;2023-08-07T01:17:22;101747.77;;;13.44;85.63
60817;BME280;51921;51.518;-3.188;2023-08-07T01:19:45;101745.61;;;13.77;84.76
60817;BME280;51921;51.518;-3.188;2023-08-07T01:22:12;101747.82;;;13.48;88.58
60817;BME280;51921;51.518;-3.188;2023-08-07T01:24:38;101750.81;;;14.12;87.08
60817;BME280;51921;51.518;-3.188;2023-08-07T01:27:10;101754.74;;;13.60;88.24
60817;BME280;51921;51.518;-3.188;2023-08-07T01:29:31;101754.12;;;13.58;88.89
60817;BME280;51921;51.518;-3.188;2023-08-07T01:31:54;101751.83;;;13.06;94.16
60817;BME280;51921;51.518;-3.188;2023-08-07T01:34:20;101746.07;;;13.01;93.93
60817;BME280;51921;51.518;-3.188;2023-08-07T01:36:44;101742.80;;;14.85;83.84
60817;BME280;51921;51.518;-3.188;2023-08-07T01:39:09;101742.78;;;12.36;96.17
60817;BME280;51921;51.518;-3.188;2023-08-07T01:41:35;101746.30;;;14.01;88.44
60817;BME280;51921;51.518;-3.188;2023-08-07T01:44:00;101749.88;;;14.27;86.16
60817;BME280;51921;51.518;-3.188;2023-08-07T01:46:25;101749.79;;;13.15;90.46
60817;BME280;51921;51.518;-3.188;2023-08-07T01:48:50;101749.38;;;13.30;90.73
60817;BME280;51921;51.518;-3.188;2023-08-07T01:51:16;101745.38;;;13.26;90.24
60817;BME280;51921;51.518;-3.188;2023-08-07T01:53:41;101746.42;;;13.99;85.98
60817;BME280;51921;51.518;-3.188;2023-08-07T01:56:07;101746.14;;;13.04;87.46
60817;BME280;51921;51.518;-3.188;2023-08-07T01:58:32;101740.33;;;13.39;89.64
60817;BME280;51921;51.518;-3.188;2023-08-07T02:00:58;101743.23;;;15.16;80.11
60817;BME280;51921;51.518;-3.188;2023-08-07T02:03:23;101740.76;;;13.67;82.77
60817;BME280;51921;51.518;-3.188;2023-08-07T02:05:49;101743.31;;;15.83;75.41
60817;BME280;51921;51.518;-3.188;2023-08-07T02:08:14;101743.91;;;14.97;75.52
60817;BME280;51921;51.518;-3.188;2023-08-07T02:10:39;101745.04;;;14.28;79.69
60817;BME280;51921;51.518;-3.188;2023-08-07T02:13:05;101746.33;;;14.70;78.55
60817;BME280;51921;51.518;-3.188;2023-08-07T02:15:30;101751.16;;;14.41;79.59
60817;BME280;51921;51.518;-3.188;2023-08-07T02:17:56;101754.66;;;13.14;86.50
60817;BME280;51921;51.518;-3.188;2023-08-07T02:20:21;101753.65;;;12.94;91.11
60817;BME280;51921;51.518;-3.188;2023-08-07T02:22:46;101751.20;;;12.22;94.75
60817;BME280;51921;51.518;-3.188;2023-08-07T02:25:12;101748.60;;;12.36;96.24
60817;BME280;51921;51.518;-3.188;2023-08-07T02:27:37;101744.98;;;12.52;96.23
60817;BME280;51921;51.518;-3.188;2023-08-07T02:30:03;101745.64;;;13.49;92.79
60817;BME280;51921;51.518;-3.188;2023-08-07T02:32:28;101748.86;;;12.87;99.01
60817;BME280;51921;51.518;-3.188;2023-08-07T02:34:54;101753.90;;;12.25;100.00
60817;BME280;51921;51.518;-3.188;2023-08-07T02:37:19;101757.59;;;11.71;100.00
60817;BME280;51921;51.518;-3.188;2023-08-07T02:39:45;101759.90;;;11.23;100.00
60817;BME280;51921;51.518;-3.188;2023-08-07T02:42:10;101758.22;;;11.84;100.00
60817;BME280;51921;51.518;-3.188;2023-08-07T02:44:36;101755.55;;;12.27;100.00
60817;BME280;51921;51.518;-3.188;2023-08-07T02:47:01;101753.53;;;11.93;100.00
60817;BME280;51921;51.518;-3.188;2023-08-07T02:49:27;101750.91;;;10.40;100.00
60817;BME280;51921;51.518;-3.188;2023-08-07T02:51:52;101749.60;;;11.96;100.00
60817;BME280;51921;51.518;-3.188;2023-08-07T02:54:17;101743.87;;;12.47;98.91
60817;BME280;51921;51.518;-3.188;2023-08-07T02:56:43;101745.48;;;11.77;100.00
60817;BME280;51921;51.518;-3.188;2023-08-07T02:59:08;101741.17;;;11.79;100.00
60817;BME280;51921;51.518;-3.188;2023-08-07T03:01:34;101743.95;;;11.75;100.00
60817;BME280;51921;51.518;-3.188;2023-08-07T03:03:59;101742.75;;;11.42;100.00
60817;BME280;51921;51.518;-3.188;2023-08-07T03:06:25;101738.09;;;11.94;100.00
60817;BME280;51921;51.518;-3.188;2023-08-07T03:08:50;101737.84;;;12.46;98.08
60817;BME280;51921;51.518;-3.188;2023-08-07T03:11:16;101736.32;;;12.39;97.75
60817;BME280;51921;51.518;-3.188;2023-08-07T03:13:41;101734.71;;;13.51;92.67
60817;BME280;51921;51.518;-3.188;2023-08-07T03:16:07;101733.99;;;12.95;93.03
60817;BME280;51921;51.518;-3.188;2023-08-07T03:18:32;101731.45;;;13.53;88.15
60817;BME280;51921;51.518;-3.188;2023-08-07T03:20:58;101729.64;;;12.83;91.65
60817;BME280;51921;51.518;-3.188;2023-08-07T03:23:23;101728.91;;;12.32;95.18
60817;BME280;51921;51.518;-3.188;2023-08-07T03:25:48;101723.03;;;13.28;90.08
60817;BME280;51921;51.518;-3.188;2023-08-07T03:28:14;101721.23;;;13.60;87.59
60817;BME280;51921;51.518;-3.188;2023-08-07T03:30:39;101718.72;;;13.27;86.34
60817;BME280;51921;51.518;-3.188;2023-08-07T03:33:05;101717.58;;;13.14;87.17
60817;BME280;51921;51.518;-3.188;2023-08-07T03:35:30;101717.96;;;13.34;88.10
60817;BME280;51921;51.518;-3.188;2023-08-07T03:37:56;101719.70;;;12.38;90.52
60817;BME280;51921;51.518;-3.188;2023-08-07T03:40:21;101720.35;;;13.32;87.62
60817;BME280;51921;51.518;-3.188;2023-08-07T03:42:46;101719.06;;;13.51;85.43
60817;BME280;51921;51.518;-3.188;2023-08-07T03:45:13;101716.90;;;12.85;85.49
60817;BME280;51921;51.518;-3.188;2023-08-07T03:47:37;101720.33;;;12.62;89.05
60817;BME280;51921;51.518;-3.188;2023-08-07T03:50:03;101716.08;;;12.21;90.39
60817;BME280;51921;51.518;-3.188;2023-08-07T03:52:28;101716.83;;;13.68;85.71
60817;BME280;51921;51.518;-3.188;2023-08-07T03:54:54;101716.99;;;13.03;87.31
60817;BME280;51921;51.518;-3.188;2023-08-07T03:57:19;101719.60;;;12.14;91.66
60817;BME280;51921;51.518;-3.188;2023-08-07T03:59:44;101718.26;;;12.91;89.80
60817;BME280;51921;51.518;-3.188;2023-08-07T04:02:10;101712.74;;;13.35;86.27
60817;BME280;51921;51.518;-3.188;2023-08-07T04:04:35;101710.17;;;14.00;83.30
60817;BME280;51921;51.518;-3.188;2023-08-07T04:07:00;101715.76;;;12.39;87.11
60817;BME280;51921;51.518;-3.188;2023-08-07T04:09:26;101720.13;;;12.21;90.89
60817;BME280;51921;51.518;-3.188;2023-08-07T04:11:51;101723.33;;;12.50;90.10
60817;BME280;51921;51.518;-3.188;2023-08-07T04:14:17;101727.52;;;13.29;85.84
60817;BME280;51921;51.518;-3.188;2023-08-07T04:16:42;101731.63;;;12.19;93.61
60817;BME280;51921;51.518;-3.188;2023-08-07T04:19:08;101734.73;;;12.13;92.16
60817;BME280;51921;51.518;-3.188;2023-08-07T04:21:33;101734.86;;;11.85;93.02
60817;BME280;51921;51.518;-3.188;2023-08-07T04:23:59;101735.71;;;13.13;88.47
60817;BME280;51921;51.518;-3.188;2023-08-07T04:26:24;101735.06;;;12.97;89.42
60817;BME280;51921;51.518;-3.188;2023-08-07T04:28:49;101733.45;;;14.22;82.00
60817;BME280;51921;51.518;-3.188;2023-08-07T04:31:15;101737.74;;;13.22;85.72
60817;BME280;51921;51.518;-3.188;2023-08-07T04:33:40;101738.25;;;13.70;84.34
60817;BME280;51921;51.518;-3.188;2023-08-07T04:36:06;101740.09;;;12.96;89.04
60817;BME280;51921;51.518;-3.188;2023-08-07T04:38:31;101737.87;;;12.81;89.85
60817;BME280;51921;51.518;-3.188;2023-08-07T04:40:57;101740.06;;;12.90;87.35
60817;BME280;51921;51.518;-3.188;2023-08-07T04:43:22;101735.08;;;13.62;86.51
60817;BME280;51921;51.518;-3.188;2023-08-07T04:45:48;101733.44;;;12.95;87.55
60817;BME280;51921;51.518;-3.188;2023-08-07T04:48:13;101735.71;;;12.89;88.17
60817;BME280;51921;51.518;-3.188;2023-08-07T04:50:39;101741.36;;;13.45;85.79
60817;BME280;51921;51.518;-3.188;2023-08-07T04:53:04;101740.20;;;13.62;82.76
60817;BME280;51921;51.518;-3.188;2023-08-07T04:55:30;101738.06;;;13.71;84.57
60817;BME280;51921;51.518;-3.188;2023-08-07T04:57:55;101738.64;;;12.81;92.27
60817;BME280;51921;51.518;-3.188;2023-08-07T05:00:21;101745.47;;;12.00;98.31
60817;BME280;51921;51.518;-3.188;2023-08-07T05:02:46;101744.22;;;11.73;100.00
60817;BME280;51921;51.518;-3.188;2023-08-07T05:05:11;101745.69;;;12.47;98.28
60817;BME280;51921;51.518;-3.188;2023-08-07T05:07:37;101743.12;;;12.51;97.42
60817;BME280;51921;51.518;-3.188;2023-08-07T05:10:03;101745.09;;;12.12;98.29
60817;BME280;51921;51.518;-3.188;2023-08-07T05:12:28;101738.04;;;11.85;98.53
60817;BME280;51921;51.518;-3.188;2023-08-07T05:14:53;101736.95;;;13.67;91.34
60817;BME280;51921;51.518;-3.188;2023-08-07T05:17:19;101735.31;;;15.18;81.36
60817;BME280;51921;51.518;-3.188;2023-08-07T05:19:44;101731.26;;;14.66;83.68
60817;BME280;51921;51.518;-3.188;2023-08-07T05:22:09;101731.93;;;13.45;85.66
60817;BME280;51921;51.518;-3.188;2023-08-07T05:24:35;101731.99;;;15.70;76.11
60817;BME280;51921;51.518;-3.188;2023-08-07T05:27:00;101730.21;;;13.96;81.89
60817;BME280;51921;51.518;-3.188;2023-08-07T05:29:25;101732.04;;;14.27;82.94
60817;BME280;51921;51.518;-3.188;2023-08-07T05:31:51;101732.74;;;14.46;82.42
60817;BME280;51921;51.518;-3.188;2023-08-07T05:34:16;101734.50;;;14.54;83.55
60817;BME280;51921;51.518;-3.188;2023-08-07T05:36:42;101736.30;;;13.62;84.45
60817;BME280;51921;51.518;-3.188;2023-08-07T05:39:07;101743.34;;;14.37;80.85
60817;BME280;51921;51.518;-3.188;2023-08-07T05:41:33;101741.99;;;13.79;82.54
60817;BME280;51921;51.518;-3.188;2023-08-07T05:43:58;101746.60;;;13.63;81.53
60817;BME280;51921;51.518;-3.188;2023-08-07T05:46:23;101740.49;;;14.41;81.07
60817;BME280;51921;51.518;-3.188;2023-08-07T05:48:49;101740.15;;;15.17;76.41
60817;BME280;51921;51.518;-3.188;2023-08-07T05:51:14;101742.98;;;14.88;78.59
60817;BME280;51921;51.518;-3.188;2023-08-07T05:53:40;101753.93;;;13.45;86.57
60817;BME280;51921;51.518;-3.188;2023-08-07T05:56:05;101749.92;;;13.58;86.92
60817;BME280;51921;51.518;-3.188;2023-08-07T05:58:31;101746.72;;;14.32;84.48
60817;BME280;51921;51.518;-3.188;2023-08-07T06:00:56;101749.47;;;13.38;89.11
60817;BME280;51921;51.518;-3.188;2023-08-07T06:03:22;101753.31;;;12.93;89.71
60817;BME280;51921;51.518;-3.188;2023-08-07T06:05:47;101753.54;;;13.88;85.44
60817;BME280;51921;51.518;-3.188;2023-08-07T06:08:12;101751.73;;;14.07;84.68
60817;BME280;51921;51.518;-3.188;2023-08-07T06:10:38;101752.93;;;14.38;81.50
60817;BME280;51921;51.518;-3.188;2023-08-07T06:13:03;101756.34;;;15.52;76.27
60817;BME280;51921;51.518;-3.188;2023-08-07T06:15:30;101756.40;;;14.32;80.86
60817;BME280;51921;51.518;-3.188;2023-08-07T06:17:54;101754.03;;;14.08;79.95
60817;BME280;51921;51.518;-3.188;2023-08-07T06:20:20;101752.66;;;14.81;76.40
60817;BME280;51921;51.518;-3.188;2023-08-07T06:22:45;101753.63;;;15.61;75.64
60817;BME280;51921;51.518;-3.188;2023-08-07T06:25:10;101764.07;;;14.94;78.41
60817;BME280;51921;51.518;-3.188;2023-08-07T06:27:36;101770.85;;;14.60;80.34
60817;BME280;51921;51.518;-3.188;2023-08-07T06:30:01;101776.43;;;15.13;79.81
60817;BME280;51921;51.518;-3.188;2023-08-07T06:32:27;101767.08;;;15.03;80.38
60817;BME280;51921;51.518;-3.188;2023-08-07T06:34:52;101762.85;;;15.60;76.48
60817;BME280;51921;51.518;-3.188;2023-08-07T06:37:17;101764.37;;;15.15;77.26
60817;BME280;51921;51.518;-3.188;2023-08-07T06:39:43;101759.20;;;15.38;76.25
60817;BME280;51921;51.518;-3.188;2023-08-07T06:42:08;101756.32;;;15.81;73.05
60817;BME280;51921;51.518;-3.188;2023-08-07T06:44:34;101752.32;;;15.23;74.55
60817;BME280;51921;51.518;-3.188;2023-08-07T06:46:59;101755.92;;;15.47;73.96
60817;BME280;51921;51.518;-3.188;2023-08-07T06:49:24;101759.01;;;16.15;71.09
60817;BME280;51921;51.518;-3.188;2023-08-07T06:51:50;101758.99;;;16.31;71.20
60817;BME280;51921;51.518;-3.188;2023-08-07T06:54:15;101755.30;;;17.42;67.91
60817;BME280;51921;51.518;-3.188;2023-08-07T06:56:40;101763.44;;;16.26;74.37
60817;BME280;51921;51.518;-3.188;2023-08-07T06:59:06;101767.27;;;16.42;71.66
60817;BME280;51921;51.518;-3.188;2023-08-07T07:01:31;101770.76;;;15.90;74.72
60817;BME280;51921;51.518;-3.188;2023-08-07T07:03:57;101769.47;;;15.90;74.48
60817;BME280;51921;51.518;-3.188;2023-08-07T07:06:22;101763.13;;;16.40;72.27
60817;BME280;51921;51.518;-3.188;2023-08-07T07:08:47;101759.00;;;16.43;70.52
60817;BME280;51921;51.518;-3.188;2023-08-07T07:11:13;101764.92;;;16.50;69.42
60817;BME280;51921;51.518;-3.188;2023-08-07T07:13:38;101772.90;;;15.66;73.06
60817;BME280;51921;51.518;-3.188;2023-08-07T07:16:04;101766.63;;;16.13;71.77
60817;BME280;51921;51.518;-3.188;2023-08-07T07:18:29;101766.69;;;15.77;72.82
60817;BME280;51921;51.518;-3.188;2023-08-07T07:20:58;101765.13;;;16.43;70.96
60817;BME280;51921;51.518;-3.188;2023-08-07T07:23:20;101765.26;;;16.98;68.89
60817;BME280;51921;51.518;-3.188;2023-08-07T07:25:45;101764.63;;;16.75;70.09
60817;BME280;51921;51.518;-3.188;2023-08-07T07:28:10;101759.53;;;16.86;68.68
60817;BME280;51921;51.518;-3.188;2023-08-07T07:30:36;101759.51;;;17.90;64.66
60817;BME280;51921;51.518;-3.188;2023-08-07T07:33:01;101763.48;;;18.11;64.42
60817;BME280;51921;51.518;-3.188;2023-08-07T07:35:26;101764.59;;;14.76;76.59
60817;BME280;51921;51.518;-3.188;2023-08-07T07:37:52;101763.68;;;17.58;69.12
60817;BME280;51921;51.518;-3.188;2023-08-07T07:40:17;101768.74;;;17.46;65.42
60817;BME280;51921;51.518;-3.188;2023-08-07T07:42:43;101776.60;;;16.02;72.26
60817;BME280;51921;51.518;-3.188;2023-08-07T07:45:08;101775.90;;;16.12;71.61
60817;BME280;51921;51.518;-3.188;2023-08-07T07:47:33;101771.76;;;15.70;74.29
60817;BME280;51921;51.518;-3.188;2023-08-07T07:50:07;101769.68;;;17.48;70.62
60817;BME280;51921;51.518;-3.188;2023-08-07T07:52:24;101766.81;;;19.71;61.67
60817;BME280;51921;51.518;-3.188;2023-08-07T07:54:49;101766.42;;;16.69;65.42
60817;BME280;51921;51.518;-3.188;2023-08-07T07:57:15;101762.54;;;22.01;54.27
60817;BME280;51921;51.518;-3.188;2023-08-07T07:59:40;101765.64;;;22.34;50.35
60817;BME280;51921;51.518;-3.188;2023-08-07T08:02:06;101767.91;;;22.77;49.81
60817;BME280;51921;51.518;-3.188;2023-08-07T08:04:31;101770.61;;;22.82;48.89
60817;BME280;51921;51.518;-3.188;2023-08-07T08:06:56;101765.19;;;22.69;47.30
60817;BME280;51921;51.518;-3.188;2023-08-07T08:09:21;101762.07;;;23.23;45.66
60817;BME280;51921;51.518;-3.188;2023-08-07T08:11:47;101761.72;;;23.34;43.74
60817;BME280;51921;51.518;-3.188;2023-08-07T08:14:12;101764.77;;;24.04;42.43
60817;BME280;51921;51.518;-3.188;2023-08-07T08:16:37;101758.93;;;23.43;43.48
60817;BME280;51921;51.518;-3.188;2023-08-07T08:19:03;101756.56;;;24.28;41.38
60817;BME280;51921;51.518;-3.188;2023-08-07T08:21:28;101756.12;;;26.12;38.19
60817;BME280;51921;51.518;-3.188;2023-08-07T08:23:53;101753.56;;;27.54;36.69
60817;BME280;51921;51.518;-3.188;2023-08-07T08:26:18;101749.32;;;27.69;35.02
60817;BME280;51921;51.518;-3.188;2023-08-07T08:28:44;101748.96;;;25.87;36.80
60817;BME280;51921;51.518;-3.188;2023-08-07T08:31:09;101754.52;;;25.46;37.76
60817;BME280;51921;51.518;-3.188;2023-08-07T08:33:34;101755.64;;;24.34;38.70
60817;BME280;51921;51.518;-3.188;2023-08-07T08:35:59;101752.03;;;24.89;39.97
60817;BME280;51921;51.518;-3.188;2023-08-07T08:38:24;101750.53;;;25.17;37.89
60817;BME280;51921;51.518;-3.188;2023-08-07T08:40:51;101757.81;;;22.24;43.01
60817;BME280;51921;51.518;-3.188;2023-08-07T08:43:15;101753.69;;;23.35;42.48
60817;BME280;51921;51.518;-3.188;2023-08-07T08:45:41;101748.67;;;22.36;44.73
60817;BME280;51921;51.518;-3.188;2023-08-07T08:48:07;101745.36;;;23.20;43.23
60817;BME280;51921;51.518;-3.188;2023-08-07T08:50:32;101752.00;;;23.36;43.43
60817;BME280;51921;51.518;-3.188;2023-08-07T08:52:57;101757.23;;;22.66;44.32
60817;BME280;51921;51.518;-3.188;2023-08-07T08:55:22;101759.52;;;23.14;42.75
60817;BME280;51921;51.518;-3.188;2023-08-07T08:57:47;101761.61;;;21.05;45.65
60817;BME280;51921;51.518;-3.188;2023-08-07T09:00:13;101760.66;;;20.51;46.29
60817;BME280;51921;51.518;-3.188;2023-08-07T09:02:37;101752.99;;;19.34;50.68
60817;BME280;51921;51.518;-3.188;2023-08-07T09:05:03;101751.34;;;19.36;51.43
60817;BME280;51921;51.518;-3.188;2023-08-07T09:07:28;101759.71;;;20.82;49.21
60817;BME280;51921;51.518;-3.188;2023-08-07T09:09:53;101761.35;;;20.55;49.47
60817;BME280;51921;51.518;-3.188;2023-08-07T09:12:20;101761.05;;;20.55;49.76
60817;BME280;51921;51.518;-3.188;2023-08-07T09:14:45;101760.44;;;21.08;49.35
60817;BME280;51921;51.518;-3.188;2023-08-07T09:17:09;101759.29;;;20.86;49.92
60817;BME280;51921;51.518;-3.188;2023-08-07T09:19:34;101759.02;;;20.16;51.79
60817;BME280;51921;51.518;-3.188;2023-08-07T09:22:00;101755.97;;;20.56;52.21
60817;BME280;51921;51.518;-3.188;2023-08-07T09:24:25;101750.36;;;19.62;53.43
60817;BME280;51921;51.518;-3.188;2023-08-07T09:26:51;101755.21;;;20.14;53.90
60817;BME280;51921;51.518;-3.188;2023-08-07T09:29:15;101754.44;;;19.10;54.63
60817;BME280;51921;51.518;-3.188;2023-08-07T09:31:43;101751.85;;;18.95;55.81
60817;BME280;51921;51.518;-3.188;2023-08-07T09:34:06;101750.32;;;19.31;54.66
60817;BME280;51921;51.518;-3.188;2023-08-07T09:36:32;101737.55;;;19.54;57.47
60817;BME280;51921;51.518;-3.188;2023-08-07T09:38:58;101726.94;;;20.19;53.37
60817;BME280;51921;51.518;-3.188;2023-08-07T09:41:22;101728.91;;;19.76;52.31
60817;BME280;51921;51.518;-3.188;2023-08-07T09:43:47;101724.81;;;18.52;55.02
60817;BME280;51921;51.518;-3.188;2023-08-07T09:46:13;101721.73;;;19.53;55.06
60817;BME280;51921;51.518;-3.188;2023-08-07T09:48:40;101727.74;;;19.77;51.80
60817;BME280;51921;51.518;-3.188;2023-08-07T09:51:03;101728.16;;;18.96;56.68
60817;BME280;51921;51.518;-3.188;2023-08-07T09:53:30;101730.61;;;18.10;62.36
60817;BME280;51921;51.518;-3.188;2023-08-07T09:55:55;101728.20;;;18.68;59.02
60817;BME280;51921;51.518;-3.188;2023-08-07T09:58:20;101728.40;;;17.99;62.59
60817;BME280;51921;51.518;-3.188;2023-08-07T10:00:46;101732.98;;;17.42;64.52
60817;BME280;51921;51.518;-3.188;2023-08-07T10:03:10;101740.94;;;17.89;63.01
60817;BME280;51921;51.518;-3.188;2023-08-07T10:05:35;101738.75;;;17.70;64.17
60817;BME280;51921;51.518;-3.188;2023-08-07T10:08:01;101736.29;;;17.81;63.15
60817;BME280;51921;51.518;-3.188;2023-08-07T10:10:26;101731.39;;;17.39;64.86
60817;BME280;51921;51.518;-3.188;2023-08-07T10:12:52;101723.70;;;17.79;68.70
60817;BME280;51921;51.518;-3.188;2023-08-07T10:15:18;101724.02;;;17.71;68.82
60817;BME280;51921;51.518;-3.188;2023-08-07T10:17:42;101720.17;;;17.30;70.98
60817;BME280;51921;51.518;-3.188;2023-08-07T10:20:08;101722.07;;;16.94;66.39
60817;BME280;51921;51.518;-3.188;2023-08-07T10:22:33;101721.21;;;17.39;64.25
60817;BME280;51921;51.518;-3.188;2023-08-07T10:25:01;101725.70;;;17.50;64.34
60817;BME280;51921;51.518;-3.188;2023-08-07T10:27:24;101710.24;;;17.15;61.78
60817;BME280;51921;51.518;-3.188;2023-08-07T10:29:49;101712.51;;;17.17;64.67
60817;BME280;51921;51.518;-3.188;2023-08-07T10:32:15;101717.93;;;17.45;65.55
60817;BME280;51921;51.518;-3.188;2023-08-07T10:34:39;101726.10;;;17.29;65.64
60817;BME280;51921;51.518;-3.188;2023-08-07T10:37:06;101719.47;;;16.93;69.46
60817;BME280;51921;51.518;-3.188;2023-08-07T10:39:30;101715.93;;;17.31;69.72
60817;BME280;51921;51.518;-3.188;2023-08-07T10:41:55;101717.22;;;17.31;73.57
60817;BME280;51921;51.518;-3.188;2023-08-07T10:44:22;101723.79;;;16.64;73.02
60817;BME280;51921;51.518;-3.188;2023-08-07T10:46:48;101722.54;;;16.90;72.02
60817;BME280;51921;51.518;-3.188;2023-08-07T10:51:37;101718.98;;;17.85;72.03
60817;BME280;51921;51.518;-3.188;2023-08-07T10:54:02;101721.57;;;17.34;69.23
60817;BME280;51921;51.518;-3.188;2023-08-07T10:56:30;101718.72;;;17.37;70.98
60817;BME280;51921;51.518;-3.188;2023-08-07T10:58:53;101715.95;;;16.50;71.64
60817;BME280;51921;51.518;-3.188;2023-08-07T11:01:21;101717.01;;;16.60;72.52
60817;BME280;51921;51.518;-3.188;2023-08-07T11:03:43;101709.29;;;16.95;70.67
60817;BME280;51921;51.518;-3.188;2023-08-07T11:06:09;101713.62;;;16.86;73.76
60817;BME280;51921;51.518;-3.188;2023-08-07T11:08:34;101712.07;;;17.28;73.58
60817;BME280;51921;51.518;-3.188;2023-08-07T11:11:04;101712.46;;;17.91;71.03
60817;BME280;51921;51.518;-3.188;2023-08-07T11:13:25;101714.18;;;17.61;73.88
60817;BME280;51921;51.518;-3.188;2023-08-07T11:15:50;101717.62;;;17.96;71.25
60817;BME280;51921;51.518;-3.188;2023-08-07T11:18:15;101707.99;;;17.30;74.19
60817;BME280;51921;51.518;-3.188;2023-08-07T11:20:41;101707.28;;;16.64;75.26
60817;BME280;51921;51.518;-3.188;2023-08-07T11:23:06;101709.80;;;16.72;74.40
60817;BME280;51921;51.518;-3.188;2023-08-07T11:25:31;101700.39;;;16.31;75.51
60817;BME280;51921;51.518;-3.188;2023-08-07T11:27:56;101697.13;;;16.45;74.75
60817;BME280;51921;51.518;-3.188;2023-08-07T11:30:22;101692.03;;;16.96;73.34
60817;BME280;51921;51.518;-3.188;2023-08-07T11:32:47;101693.89;;;17.85;67.89
60817;BME280;51921;51.518;-3.188;2023-08-07T11:35:13;101697.29;;;17.47;67.79
60817;BME280;51921;51.518;-3.188;2023-08-07T11:37:45;101697.60;;;18.21;61.95
60817;BME280;51921;51.518;-3.188;2023-08-07T11:40:04;101695.36;;;17.77;64.38
60817;BME280;51921;51.518;-3.188;2023-08-07T11:42:28;101691.35;;;18.33;65.36
60817;BME280;51921;51.518;-3.188;2023-08-07T11:44:54;101697.07;;;17.64;66.68
60817;BME280;51921;51.518;-3.188;2023-08-07T11:47:20;101690.77;;;17.36;65.66
60817;BME280;51921;51.518;-3.188;2023-08-07T11:49:45;101694.39;;;17.78;64.81
60817;BME280;51921;51.518;-3.188;2023-08-07T11:52:10;101691.58;;;18.29;63.27
60817;BME280;51921;51.518;-3.188;2023-08-07T11:54:35;101693.69;;;17.12;72.80
60817;BME280;51921;51.518;-3.188;2023-08-07T11:57:00;101692.98;;;18.05;67.11
60817;BME280;51921;51.518;-3.188;2023-08-07T11:59:26;101687.40;;;17.75;64.68
60817;BME280;51921;51.518;-3.188;2023-08-07T12:01:51;101675.77;;;17.86;62.18
60817;BME280;51921;51.518;-3.188;2023-08-07T12:04:17;101679.18;;;17.05;64.99
60817;BME280;51921;51.518;-3.188;2023-08-07T12:06:52;101679.92;;;17.70;65.00
60817;BME280;51921;51.518;-3.188;2023-08-07T12:09:07;101679.53;;;17.09;69.35
60817;BME280;51921;51.518;-3.188;2023-08-07T12:11:33;101674.91;;;17.08;70.66
60817;BME280;51921;51.518;-3.188;2023-08-07T12:14:00;101671.45;;;17.32;69.47
60817;BME280;51921;51.518;-3.188;2023-08-07T12:16:24;101668.07;;;17.42;69.21
60817;BME280;51921;51.518;-3.188;2023-08-07T12:18:51;101674.74;;;17.69;64.51
60817;BME280;51921;51.518;-3.188;2023-08-07T12:21:16;101665.63;;;17.81;64.68
60817;BME280;51921;51.518;-3.188;2023-08-07T12:23:40;101670.71;;;16.03;71.75
60817;BME280;51921;51.518;-3.188;2023-08-07T12:26:06;101671.77;;;16.73;71.91
60817;BME280;51921;51.518;-3.188;2023-08-07T12:28:30;101666.29;;;16.77;72.56
60817;BME280;51921;51.518;-3.188;2023-08-07T12:30:56;101658.68;;;17.19;69.70
60817;BME280;51921;51.518;-3.188;2023-08-07T12:33:22;101661.25;;;16.69;72.43